sensor_id;sensor_type;location;lat;lon;timestamp;P1;durP1;ratioP1;P2;durP2;ratioP2
31298;SDS011;17927;52.350;13.402;2022-12-31T00:00:33;1.25;;;1.13;;
31298;SDS011;17927;52.350;13.402;2022-12-31T00:03:02;1.05;;;1.05;;
31298;SDS011;17927;52.350;13.402;2022-12-31T00:05:30;3.15;;;0.90;;
31298;SDS011;17927;52.350;13.402;2022-12-31T00:07:56;1.13;;;0.80;;
31298;SDS011;17927;52.350;13.402;2022-12-31T00:10:22;1.13;;;1.02;;
31298;SDS011;17927;52.350;13.402;2022-12-31T00:12:48;0.70;;;0.70;;
31298;SDS011;17927;52.350;13.402;2022-12-31T00:15:13;1.05;;;0.95;;
31298;SDS011;17927;52.350;13.402;2022-12-31T00:17:38;1.83;;;0.93;;
31298;SDS011;17927;52.350;13.402;2022-12-31T00:20:03;1.45;;;0.80;;
31298;SDS011;17927;52.350;13.402;2022-12-31T00:22:29;0.70;;;0.70;;
31298;SDS011;17927;52.350;13.402;2022-12-31T00:24:54;0.77;;;0.77;;
31298;SDS011;17927;52.350;13.402;2022-12-31T00:27:20;0.95;;;0.88;;
31298;SDS011;17927;52.350;13.402;2022-12-31T00:29:46;2.97;;;0.77;;
31298;SDS011;17927;52.350;13.402;2022-12-31T00:32:11;0.70;;;0.70;;
31298;SDS011;17927;52.350;13.402;2022-12-31T00:34:36;0.60;;;0.60;;
31298;SDS011;17927;52.350;13.402;2022-12-31T00:37:02;0.70;;;0.70;;
31298;SDS011;17927;52.350;13.402;2022-12-31T00:39:27;0.60;;;0.60;;
31298;SDS011;17927;52.350;13.402;2022-12-31T00:41:52;0.98;;;0.70;;
31298;SDS011;17927;52.350;13.402;2022-12-31T00:44:17;0.90;;;0.80;;
31298;SDS011;17927;52.350;13.402;2022-12-31T00:46:43;0.95;;;0.70;;
31298;SDS011;17927;52.350;13.402;2022-12-31T00:49:09;2.42;;;1.13;;
31298;SDS011;17927;52.350;13.402;2022-12-31T00:51:34;0.90;;;0.90;;
31298;SDS011;17927;52.350;13.402;2022-12-31T00:54:00;1.15;;;0.70;;
31298;SDS011;17927;52.350;13.402;2022-12-31T00:56:26;3.05;;;0.70;;
31298;SDS011;17927;52.350;13.402;2022-12-31T00:58:53;0.68;;;0.68;;
31298;SDS011;17927;52.350;13.402;2022-12-31T01:01:20;0.60;;;0.60;;
31298;SDS011;17927;52.350;13.402;2022-12-31T01:06:16;0.75;;;0.63;;
31298;SDS011;17927;52.350;13.402;2022-12-31T01:08:42;0.60;;;0.60;;
31298;SDS011;17927;52.350;13.402;2022-12-31T01:11:09;0.80;;;0.70;;
31298;SDS011;17927;52.350;13.402;2022-12-31T01:13:52;0.40;;;0.40;;
31298;SDS011;17927;52.350;13.402;2022-12-31T01:16:43;0.50;;;0.50;;
31298;SDS011;17927;52.350;13.402;2022-12-31T01:19:12;0.40;;;0.40;;
31298;SDS011;17927;52.350;13.402;2022-12-31T01:21:40;0.45;;;0.45;;
31298;SDS011;17927;52.350;13.402;2022-12-31T01:24:07;0.30;;;0.30;;
31298;SDS011;17927;52.350;13.402;2022-12-31T01:26:34;0.40;;;0.40;;
31298;SDS011;17927;52.350;13.402;2022-12-31T01:28:59;0.40;;;0.40;;
31298;SDS011;17927;52.350;13.402;2022-12-31T01:31:25;0.50;;;0.47;;
31298;SDS011;17927;52.350;13.402;2022-12-31T01:33:50;0.40;;;0.38;;
31298;SDS011;17927;52.350;13.402;2022-12-31T01:36:17;0.32;;;0.32;;
31298;SDS011;17927;52.350;13.402;2022-12-31T01:38:47;0.55;;;0.45;;
31298;SDS011;17927;52.350;13.402;2022-12-31T01:41:14;0.47;;;0.30;;
31298;SDS011;17927;52.350;13.402;2022-12-31T01:43:54;1.75;;;0.43;;
31298;SDS011;17927;52.350;13.402;2022-12-31T01:46:32;0.25;;;0.25;;
31298;SDS011;17927;52.350;13.402;2022-12-31T01:51:44;0.30;;;0.30;;
31298;SDS011;17927;52.350;13.402;2022-12-31T01:54:13;1.38;;;0.30;;
31298;SDS011;17927;52.350;13.402;2022-12-31T01:56:42;0.50;;;0.50;;
31298;SDS011;17927;52.350;13.402;2022-12-31T01:59:09;0.28;;;0.28;;
31298;SDS011;17927;52.350;13.402;2022-12-31T02:01:36;0.40;;;0.25;;
31298;SDS011;17927;52.350;13.402;2022-12-31T02:04:04;0.40;;;0.40;;
31298;SDS011;17927;52.350;13.402;2022-12-31T02:09:20;0.30;;;0.30;;
31298;SDS011;17927;52.350;13.402;2022-12-31T02:11:45;0.63;;;0.38;;
31298;SDS011;17927;52.350;13.402;2022-12-31T02:14:20;0.30;;;0.30;;
31298;SDS011;17927;52.350;13.402;2022-12-31T02:22:27;0.30;;;0.30;;
31298;SDS011;17927;52.350;13.402;2022-12-31T02:31:05;0.40;;;0.38;;
31298;SDS011;17927;52.350;13.402;2022-12-31T02:33:37;0.40;;;0.40;;
31298;SDS011;17927;52.350;13.402;2022-12-31T02:36:11;0.30;;;0.30;;
31298;SDS011;17927;52.350;13.402;2022-12-31T02:38:42;0.30;;;0.30;;
31298;SDS011;17927;52.350;13.402;2022-12-31T02:41:13;0.30;;;0.30;;
31298;SDS011;17927;52.350;13.402;2022-12-31T02:44:02;0.28;;;0.20;;
31298;SDS011;17927;52.350;13.402;2022-12-31T02:46:43;0.75;;;0.38;;
31298;SDS011;17927;52.350;13.402;2022-12-31T02:52:41;0.40;;;0.30;;
31298;SDS011;17927;52.350;13.402;2022-12-31T02:57:41;0.20;;;0.13;;
31298;SDS011;17927;52.350;13.402;2022-12-31T03:00:24;0.20;;;0.20;;
31298;SDS011;17927;52.350;13.402;2022-12-31T03:03:09;0.20;;;0.20;;
31298;SDS011;17927;52.350;13.402;2022-12-31T03:05:36;0.20;;;0.20;;
31298;SDS011;17927;52.350;13.402;2022-12-31T03:08:05;0.10;;;0.10;;
31298;SDS011;17927;52.350;13.402;2022-12-31T03:10:30;0.20;;;0.20;;
31298;SDS011;17927;52.350;13.402;2022-12-31T03:12:56;0.20;;;0.20;;
31298;SDS011;17927;52.350;13.402;2022-12-31T03:17:56;0.57;;;0.35;;
31298;SDS011;17927;52.350;13.402;2022-12-31T03:20:33;0.25;;;0.25;;
31298;SDS011;17927;52.350;13.402;2022-12-31T03:23:20;0.20;;;0.20;;
31298;SDS011;17927;52.350;13.402;2022-12-31T03:25:51;0.20;;;0.20;;
31298;SDS011;17927;52.350;13.402;2022-12-31T03:28:18;0.22;;;0.22;;
31298;SDS011;17927;52.350;13.402;2022-12-31T03:30:45;0.20;;;0.20;;
31298;SDS011;17927;52.350;13.402;2022-12-31T03:33:13;0.10;;;0.10;;
31298;SDS011;17927;52.350;13.402;2022-12-31T03:35:39;0.20;;;0.20;;
31298;SDS011;17927;52.350;13.402;2022-12-31T03:38:06;0.25;;;0.25;;
31298;SDS011;17927;52.350;13.402;2022-12-31T03:40:32;0.20;;;0.20;;
31298;SDS011;17927;52.350;13.402;2022-12-31T03:43:02;0.20;;;0.20;;
31298;SDS011;17927;52.350;13.402;2022-12-31T03:45:27;2.83;;;0.30;;
31298;SDS011;17927;52.350;13.402;2022-12-31T03:47:52;0.28;;;0.28;;
31298;SDS011;17927;52.350;13.402;2022-12-31T03:50:18;0.30;;;0.30;;
31298;SDS011;17927;52.350;13.402;2022-12-31T03:52:43;0.20;;;0.20;;
31298;SDS011;17927;52.350;13.402;2022-12-31T03:55:09;0.40;;;0.40;;
31298;SDS011;17927;52.350;13.402;2022-12-31T03:57:36;0.75;;;0.20;;
31298;SDS011;17927;52.350;13.402;2022-12-31T04:00:02;0.30;;;0.30;;
31298;SDS011;17927;52.350;13.402;2022-12-31T04:02:30;0.20;;;0.20;;
31298;SDS011;17927;52.350;13.402;2022-12-31T04:04:55;0.60;;;0.60;;
31298;SDS011;17927;52.350;13.402;2022-12-31T04:07:20;0.20;;;0.20;;
31298;SDS011;17927;52.350;13.402;2022-12-31T04:09:46;0.22;;;0.22;;
31298;SDS011;17927;52.350;13.402;2022-12-31T04:12:11;0.35;;;0.22;;
31298;SDS011;17927;52.350;13.402;2022-12-31T04:14:36;0.38;;;0.20;;
31298;SDS011;17927;52.350;13.402;2022-12-31T04:17:01;0.35;;;0.10;;
31298;SDS011;17927;52.350;13.402;2022-12-31T04:19:27;0.30;;;0.30;;
31298;SDS011;17927;52.350;13.402;2022-12-31T04:21:52;2.20;;;1.80;;
31298;SDS011;17927;52.350;13.402;2022-12-31T04:24:17;0.28;;;0.28;;
31298;SDS011;17927;52.350;13.402;2022-12-31T04:26:42;0.30;;;0.30;;
31298;SDS011;17927;52.350;13.402;2022-12-31T04:29:08;0.20;;;0.20;;
31298;SDS011;17927;52.350;13.402;2022-12-31T04:31:34;0.30;;;0.30;;
31298;SDS011;17927;52.350;13.402;2022-12-31T04:33:59;0.20;;;0.20;;
31298;SDS011;17927;52.350;13.402;2022-12-31T04:36:24;0.30;;;0.30;;
31298;SDS011;17927;52.350;13.402;2022-12-31T04:38:49;6.05;;;0.45;;
31298;SDS011;17927;52.350;13.402;2022-12-31T04:41:15;0.40;;;0.40;;
31298;SDS011;17927;52.350;13.402;2022-12-31T04:43:45;0.50;;;0.38;;
31298;SDS011;17927;52.350;13.402;2022-12-31T04:46:15;0.30;;;0.30;;
31298;SDS011;17927;52.350;13.402;2022-12-31T04:48:43;0.20;;;0.20;;
31298;SDS011;17927;52.350;13.402;2022-12-31T04:51:08;0.88;;;0.30;;
31298;SDS011;17927;52.350;13.402;2022-12-31T04:53:33;0.65;;;0.30;;
31298;SDS011;17927;52.350;13.402;2022-12-31T04:55:59;1.10;;;0.13;;
31298;SDS011;17927;52.350;13.402;2022-12-31T04:58:24;0.15;;;0.15;;
31298;SDS011;17927;52.350;13.402;2022-12-31T05:00:50;0.82;;;0.30;;
31298;SDS011;17927;52.350;13.402;2022-12-31T05:03:18;0.60;;;0.10;;
31298;SDS011;17927;52.350;13.402;2022-12-31T05:05:44;1.05;;;0.30;;
31298;SDS011;17927;52.350;13.402;2022-12-31T05:08:09;0.52;;;0.30;;
31298;SDS011;17927;52.350;13.402;2022-12-31T05:10:36;0.30;;;0.30;;
31298;SDS011;17927;52.350;13.402;2022-12-31T05:13:05;0.20;;;0.20;;
31298;SDS011;17927;52.350;13.402;2022-12-31T05:15:30;0.20;;;0.20;;
31298;SDS011;17927;52.350;13.402;2022-12-31T05:17:55;1.05;;;0.20;;
31298;SDS011;17927;52.350;13.402;2022-12-31T05:20:20;0.30;;;0.30;;
31298;SDS011;17927;52.350;13.402;2022-12-31T05:22:45;0.20;;;0.20;;
31298;SDS011;17927;52.350;13.402;2022-12-31T05:25:11;2.17;;;0.20;;
31298;SDS011;17927;52.350;13.402;2022-12-31T05:27:36;0.15;;;0.15;;
31298;SDS011;17927;52.350;13.402;2022-12-31T05:30:02;0.30;;;0.30;;
31298;SDS011;17927;52.350;13.402;2022-12-31T05:32:28;0.40;;;0.40;;
31298;SDS011;17927;52.350;13.402;2022-12-31T05:34:53;0.73;;;0.30;;
31298;SDS011;17927;52.350;13.402;2022-12-31T05:37:18;0.90;;;0.30;;
31298;SDS011;17927;52.350;13.402;2022-12-31T05:39:44;0.28;;;0.28;;
31298;SDS011;17927;52.350;13.402;2022-12-31T05:42:09;0.20;;;0.20;;
31298;SDS011;17927;52.350;13.402;2022-12-31T05:44:34;0.60;;;0.30;;
31298;SDS011;17927;52.350;13.402;2022-12-31T05:46:59;0.30;;;0.30;;
31298;SDS011;17927;52.350;13.402;2022-12-31T05:49:25;0.45;;;0.30;;
31298;SDS011;17927;52.350;13.402;2022-12-31T05:51:50;1.55;;;0.30;;
31298;SDS011;17927;52.350;13.402;2022-12-31T05:54:15;0.50;;;0.15;;
31298;SDS011;17927;52.350;13.402;2022-12-31T05:56:40;0.30;;;0.30;;
31298;SDS011;17927;52.350;13.402;2022-12-31T05:59:06;0.20;;;0.20;;
31298;SDS011;17927;52.350;13.402;2022-12-31T06:01:31;0.40;;;0.20;;
31298;SDS011;17927;52.350;13.402;2022-12-31T06:03:56;0.28;;;0.28;;
31298;SDS011;17927;52.350;13.402;2022-12-31T06:06:21;0.20;;;0.20;;
31298;SDS011;17927;52.350;13.402;2022-12-31T06:08:50;0.28;;;0.28;;
31298;SDS011;17927;52.350;13.402;2022-12-31T06:11:15;0.15;;;0.15;;
31298;SDS011;17927;52.350;13.402;2022-12-31T06:13:41;0.20;;;0.20;;
31298;SDS011;17927;52.350;13.402;2022-12-31T06:16:07;0.22;;;0.20;;
31298;SDS011;17927;52.350;13.402;2022-12-31T06:18:33;0.17;;;0.17;;
31298;SDS011;17927;52.350;13.402;2022-12-31T06:20:58;0.10;;;0.10;;
31298;SDS011;17927;52.350;13.402;2022-12-31T06:23:23;0.20;;;0.20;;
31298;SDS011;17927;52.350;13.402;2022-12-31T06:25:49;0.30;;;0.30;;
31298;SDS011;17927;52.350;13.402;2022-12-31T06:28:14;0.20;;;0.20;;
31298;SDS011;17927;52.350;13.402;2022-12-31T06:30:39;0.38;;;0.15;;
31298;SDS011;17927;52.350;13.402;2022-12-31T06:33:04;0.52;;;0.20;;
31298;SDS011;17927;52.350;13.402;2022-12-31T06:35:30;0.88;;;0.20;;
31298;SDS011;17927;52.350;13.402;2022-12-31T06:37:55;0.30;;;0.30;;
31298;SDS011;17927;52.350;13.402;2022-12-31T06:40:20;0.20;;;0.20;;
31298;SDS011;17927;52.350;13.402;2022-12-31T06:42:45;0.43;;;0.32;;
31298;SDS011;17927;52.350;13.402;2022-12-31T06:45:11;0.20;;;0.20;;
31298;SDS011;17927;52.350;13.402;2022-12-31T06:47:36;0.10;;;0.10;;
31298;SDS011;17927;52.350;13.402;2022-12-31T06:50:01;0.22;;;0.22;;
31298;SDS011;17927;52.350;13.402;2022-12-31T06:52:26;0.30;;;0.28;;
31298;SDS011;17927;52.350;13.402;2022-12-31T06:54:52;0.13;;;0.13;;
31298;SDS011;17927;52.350;13.402;2022-12-31T06:57:17;0.20;;;0.20;;
31298;SDS011;17927;52.350;13.402;2022-12-31T06:59:43;1.52;;;0.35;;
31298;SDS011;17927;52.350;13.402;2022-12-31T07:02:11;0.25;;;0.25;;
31298;SDS011;17927;52.350;13.402;2022-12-31T07:07:45;0.20;;;0.20;;
31298;SDS011;17927;52.350;13.402;2022-12-31T07:10:25;2.60;;;0.30;;
31298;SDS011;17927;52.350;13.402;2022-12-31T07:18:45;0.38;;;0.22;;
31298;SDS011;17927;52.350;13.402;2022-12-31T07:21:17;0.20;;;0.20;;
31298;SDS011;17927;52.350;13.402;2022-12-31T07:23:49;1.00;;;0.40;;
31298;SDS011;17927;52.350;13.402;2022-12-31T07:26:23;0.73;;;0.30;;
31298;SDS011;17927;52.350;13.402;2022-12-31T07:28:59;1.25;;;0.50;;
31298;SDS011;17927;52.350;13.402;2022-12-31T07:31:35;0.17;;;0.17;;
31298;SDS011;17927;52.350;13.402;2022-12-31T07:36:49;7.10;;;4.95;;
31298;SDS011;17927;52.350;13.402;2022-12-31T07:39:37;1.75;;;1.65;;
31298;SDS011;17927;52.350;13.402;2022-12-31T07:44:40;0.43;;;0.43;;
31298;SDS011;17927;52.350;13.402;2022-12-31T07:47:35;0.57;;;0.47;;
31298;SDS011;17927;52.350;13.402;2022-12-31T07:50:01;0.65;;;0.65;;
31298;SDS011;17927;52.350;13.402;2022-12-31T07:52:26;0.28;;;0.28;;
31298;SDS011;17927;52.350;13.402;2022-12-31T07:54:52;0.60;;;0.60;;
31298;SDS011;17927;52.350;13.402;2022-12-31T07:57:17;1.20;;;0.68;;
31298;SDS011;17927;52.350;13.402;2022-12-31T08:05:31;0.77;;;0.30;;
31298;SDS011;17927;52.350;13.402;2022-12-31T08:08:23;1.10;;;0.20;;
31298;SDS011;17927;52.350;13.402;2022-12-31T08:13:54;2.33;;;0.32;;
31298;SDS011;17927;52.350;13.402;2022-12-31T08:16:24;0.10;;;0.10;;
31298;SDS011;17927;52.350;13.402;2022-12-31T08:18:49;0.25;;;0.25;;
31298;SDS011;17927;52.350;13.402;2022-12-31T08:21:21;1.30;;;0.20;;
31298;SDS011;17927;52.350;13.402;2022-12-31T08:24:01;0.20;;;0.20;;
31298;SDS011;17927;52.350;13.402;2022-12-31T08:26:40;0.15;;;0.10;;
31298;SDS011;17927;52.350;13.402;2022-12-31T08:29:27;0.57;;;0.30;;
31298;SDS011;17927;52.350;13.402;2022-12-31T08:32:06;2.40;;;0.60;;
31298;SDS011;17927;52.350;13.402;2022-12-31T08:37:25;0.30;;;0.30;;
31298;SDS011;17927;52.350;13.402;2022-12-31T08:45:48;0.30;;;0.30;;
31298;SDS011;17927;52.350;13.402;2022-12-31T08:50:46;0.63;;;0.32;;
31298;SDS011;17927;52.350;13.402;2022-12-31T08:53:12;0.20;;;0.20;;
31298;SDS011;17927;52.350;13.402;2022-12-31T08:55:38;0.20;;;0.20;;
31298;SDS011;17927;52.350;13.402;2022-12-31T08:58:16;0.30;;;0.30;;
31298;SDS011;17927;52.350;13.402;2022-12-31T09:03:17;0.20;;;0.20;;
31298;SDS011;17927;52.350;13.402;2022-12-31T09:11:53;0.30;;;0.30;;
31298;SDS011;17927;52.350;13.402;2022-12-31T09:14:37;3.72;;;0.30;;
31298;SDS011;17927;52.350;13.402;2022-12-31T09:19:36;0.98;;;0.32;;
31298;SDS011;17927;52.350;13.402;2022-12-31T09:22:01;0.40;;;0.30;;
31298;SDS011;17927;52.350;13.402;2022-12-31T09:24:27;0.47;;;0.47;;
31298;SDS011;17927;52.350;13.402;2022-12-31T09:27:03;0.15;;;0.15;;
31298;SDS011;17927;52.350;13.402;2022-12-31T09:32:34;0.68;;;0.60;;
31298;SDS011;17927;52.350;13.402;2022-12-31T09:35:13;1.48;;;0.50;;
31298;SDS011;17927;52.350;13.402;2022-12-31T09:37:50;0.40;;;0.40;;
31298;SDS011;17927;52.350;13.402;2022-12-31T09:40:45;0.40;;;0.40;;
31298;SDS011;17927;52.350;13.402;2022-12-31T09:43:25;0.32;;;0.30;;
31298;SDS011;17927;52.350;13.402;2022-12-31T09:48:41;3.47;;;0.50;;
31298;SDS011;17927;52.350;13.402;2022-12-31T09:51:37;4.13;;;0.60;;
31298;SDS011;17927;52.350;13.402;2022-12-31T09:54:22;0.73;;;0.73;;
31298;SDS011;17927;52.350;13.402;2022-12-31T09:57:19;0.65;;;0.32;;
31298;SDS011;17927;52.350;13.402;2022-12-31T09:59:54;0.65;;;0.50;;
31298;SDS011;17927;52.350;13.402;2022-12-31T10:10:55;3.55;;;0.70;;
31298;SDS011;17927;52.350;13.402;2022-12-31T10:21:58;0.40;;;0.40;;
31298;SDS011;17927;52.350;13.402;2022-12-31T10:24:53;0.40;;;0.40;;
31298;SDS011;17927;52.350;13.402;2022-12-31T10:27:43;0.40;;;0.40;;
31298;SDS011;17927;52.350;13.402;2022-12-31T10:30:16;1.05;;;0.50;;
31298;SDS011;17927;52.350;13.402;2022-12-31T10:32:58;0.50;;;0.50;;
31298;SDS011;17927;52.350;13.402;2022-12-31T10:35:49;1.23;;;0.60;;
31298;SDS011;17927;52.350;13.402;2022-12-31T10:38:28;3.00;;;2.20;;
31298;SDS011;17927;52.350;13.402;2022-12-31T10:41:24;4.78;;;0.80;;
31298;SDS011;17927;52.350;13.402;2022-12-31T10:44:18;0.60;;;0.50;;
31298;SDS011;17927;52.350;13.402;2022-12-31T10:52:49;1.17;;;0.60;;
31298;SDS011;17927;52.350;13.402;2022-12-31T10:55:42;1.02;;;0.82;;
31298;SDS011;17927;52.350;13.402;2022-12-31T11:04:17;3.83;;;0.68;;
31298;SDS011;17927;52.350;13.402;2022-12-31T11:15:11;1.30;;;0.60;;
31298;SDS011;17927;52.350;13.402;2022-12-31T11:26:16;2.95;;;0.90;;
31298;SDS011;17927;52.350;13.402;2022-12-31T11:40:00;4.32;;;0.95;;
31298;SDS011;17927;52.350;13.402;2022-12-31T11:42:54;0.95;;;0.50;;
31298;SDS011;17927;52.350;13.402;2022-12-31T11:48:03;0.90;;;0.50;;
31298;SDS011;17927;52.350;13.402;2022-12-31T11:51:06;1.58;;;0.70;;
31298;SDS011;17927;52.350;13.402;2022-12-31T11:53:45;2.55;;;1.00;;
31298;SDS011;17927;52.350;13.402;2022-12-31T11:56:18;1.42;;;0.50;;
31298;SDS011;17927;52.350;13.402;2022-12-31T11:58:48;2.05;;;1.25;;
31298;SDS011;17927;52.350;13.402;2022-12-31T12:01:28;1.55;;;0.45;;
31298;SDS011;17927;52.350;13.402;2022-12-31T12:03:56;1.42;;;0.98;;
31298;SDS011;17927;52.350;13.402;2022-12-31T12:06:26;3.30;;;0.70;;
31298;SDS011;17927;52.350;13.402;2022-12-31T12:09:03;1.45;;;1.10;;
31298;SDS011;17927;52.350;13.402;2022-12-31T12:11:32;1.23;;;0.93;;
31298;SDS011;17927;52.350;13.402;2022-12-31T12:14:16;5.30;;;1.48;;
31298;SDS011;17927;52.350;13.402;2022-12-31T12:16:44;2.25;;;0.80;;
31298;SDS011;17927;52.350;13.402;2022-12-31T12:19:15;1.65;;;0.70;;
31298;SDS011;17927;52.350;13.402;2022-12-31T12:21:45;0.55;;;0.50;;
31298;SDS011;17927;52.350;13.402;2022-12-31T12:26:51;1.33;;;0.85;;
31298;SDS011;17927;52.350;13.402;2022-12-31T12:29:18;1.75;;;0.60;;
31298;SDS011;17927;52.350;13.402;2022-12-31T12:34:29;2.10;;;0.35;;
31298;SDS011;17927;52.350;13.402;2022-12-31T12:36:55;1.80;;;0.50;;
31298;SDS011;17927;52.350;13.402;2022-12-31T12:39:21;0.40;;;0.40;;
31298;SDS011;17927;52.350;13.402;2022-12-31T12:42:06;0.45;;;0.45;;
31298;SDS011;17927;52.350;13.402;2022-12-31T12:44:36;1.27;;;0.60;;
31298;SDS011;17927;52.350;13.402;2022-12-31T12:47:02;1.35;;;1.25;;
31298;SDS011;17927;52.350;13.402;2022-12-31T12:49:35;5.85;;;0.68;;
31298;SDS011;17927;52.350;13.402;2022-12-31T12:52:20;0.88;;;0.85;;
31298;SDS011;17927;52.350;13.402;2022-12-31T13:14:23;1.77;;;0.70;;
31298;SDS011;17927;52.350;13.402;2022-12-31T13:19:45;1.13;;;0.60;;
31298;SDS011;17927;52.350;13.402;2022-12-31T13:25:16;1.00;;;0.98;;
31298;SDS011;17927;52.350;13.402;2022-12-31T13:27:54;1.58;;;0.60;;
31298;SDS011;17927;52.350;13.402;2022-12-31T13:30:35;4.10;;;0.40;;
31298;SDS011;17927;52.350;13.402;2022-12-31T13:38:17;4.00;;;0.85;;
31298;SDS011;17927;52.350;13.402;2022-12-31T13:43:46;2.47;;;0.88;;
31298;SDS011;17927;52.350;13.402;2022-12-31T13:46:21;1.08;;;0.93;;
31298;SDS011;17927;52.350;13.402;2022-12-31T13:49:02;2.80;;;1.48;;
31298;SDS011;17927;52.350;13.402;2022-12-31T13:51:44;1.10;;;0.98;;
31298;SDS011;17927;52.350;13.402;2022-12-31T13:54:19;0.40;;;0.40;;
31298;SDS011;17927;52.350;13.402;2022-12-31T13:56:54;0.70;;;0.70;;
31298;SDS011;17927;52.350;13.402;2022-12-31T13:59:30;6.53;;;0.73;;
31298;SDS011;17927;52.350;13.402;2022-12-31T14:02:04;2.17;;;0.60;;
31298;SDS011;17927;52.350;13.402;2022-12-31T14:04:38;1.30;;;0.70;;
31298;SDS011;17927;52.350;13.402;2022-12-31T14:07:15;1.00;;;0.77;;
31298;SDS011;17927;52.350;13.402;2022-12-31T14:09:46;1.23;;;1.10;;
31298;SDS011;17927;52.350;13.402;2022-12-31T14:12:16;1.40;;;0.50;;
31298;SDS011;17927;52.350;13.402;2022-12-31T14:15:11;1.15;;;0.60;;
31298;SDS011;17927;52.350;13.402;2022-12-31T14:17:46;1.05;;;0.73;;
31298;SDS011;17927;52.350;13.402;2022-12-31T14:20:30;1.35;;;0.80;;
31298;SDS011;17927;52.350;13.402;2022-12-31T14:23:12;0.85;;;0.60;;
31298;SDS011;17927;52.350;13.402;2022-12-31T14:25:51;0.47;;;0.47;;
31298;SDS011;17927;52.350;13.402;2022-12-31T14:28:23;4.47;;;1.10;;
31298;SDS011;17927;52.350;13.402;2022-12-31T14:30:55;0.68;;;0.68;;
31298;SDS011;17927;52.350;13.402;2022-12-31T14:36:05;1.55;;;0.73;;
31298;SDS011;17927;52.350;13.402;2022-12-31T14:46:50;1.85;;;0.73;;
31298;SDS011;17927;52.350;13.402;2022-12-31T14:52:29;0.70;;;0.40;;
31298;SDS011;17927;52.350;13.402;2022-12-31T14:57:37;1.80;;;0.95;;
31298;SDS011;17927;52.350;13.402;2022-12-31T15:02:50;1.40;;;1.25;;
31298;SDS011;17927;52.350;13.402;2022-12-31T15:05:19;1.40;;;1.08;;
31298;SDS011;17927;52.350;13.402;2022-12-31T15:10:17;4.27;;;0.90;;
31298;SDS011;17927;52.350;13.402;2022-12-31T15:16:08;0.82;;;0.70;;
31298;SDS011;17927;52.350;13.402;2022-12-31T15:18:54;1.58;;;0.70;;
31298;SDS011;17927;52.350;13.402;2022-12-31T15:24:21;0.65;;;0.63;;
31298;SDS011;17927;52.350;13.402;2022-12-31T15:26:50;0.65;;;0.55;;
31298;SDS011;17927;52.350;13.402;2022-12-31T15:29:22;0.95;;;0.70;;
31298;SDS011;17927;52.350;13.402;2022-12-31T15:31:50;1.38;;;0.68;;
31298;SDS011;17927;52.350;13.402;2022-12-31T15:34:24;3.80;;;0.88;;
31298;SDS011;17927;52.350;13.402;2022-12-31T15:36:52;1.35;;;0.68;;
31298;SDS011;17927;52.350;13.402;2022-12-31T15:39:23;1.27;;;0.70;;
31298;SDS011;17927;52.350;13.402;2022-12-31T15:41:51;1.02;;;0.88;;
31298;SDS011;17927;52.350;13.402;2022-12-31T15:44:25;1.63;;;1.48;;
31298;SDS011;17927;52.350;13.402;2022-12-31T15:46:57;2.13;;;1.60;;
31298;SDS011;17927;52.350;13.402;2022-12-31T15:49:29;3.20;;;2.90;;
31298;SDS011;17927;52.350;13.402;2022-12-31T15:52:03;1.38;;;1.27;;
31298;SDS011;17927;52.350;13.402;2022-12-31T15:54:36;3.95;;;1.50;;
31298;SDS011;17927;52.350;13.402;2022-12-31T15:57:11;5.75;;;1.42;;
31298;SDS011;17927;52.350;13.402;2022-12-31T15:59:41;4.40;;;2.17;;
31298;SDS011;17927;52.350;13.402;2022-12-31T16:02:16;3.05;;;2.03;;
31298;SDS011;17927;52.350;13.402;2022-12-31T16:04:44;4.28;;;1.88;;
31298;SDS011;17927;52.350;13.402;2022-12-31T16:07:11;3.67;;;2.72;;
31298;SDS011;17927;52.350;13.402;2022-12-31T16:09:37;3.13;;;2.80;;
31298;SDS011;17927;52.350;13.402;2022-12-31T16:12:07;2.35;;;1.63;;
31298;SDS011;17927;52.350;13.402;2022-12-31T16:14:39;3.67;;;1.30;;
31298;SDS011;17927;52.350;13.402;2022-12-31T16:19:53;3.47;;;2.45;;
31298;SDS011;17927;52.350;13.402;2022-12-31T16:22:35;2.05;;;1.23;;
31298;SDS011;17927;52.350;13.402;2022-12-31T16:25:02;2.50;;;1.38;;
31298;SDS011;17927;52.350;13.402;2022-12-31T16:27:30;1.48;;;1.33;;
31298;SDS011;17927;52.350;13.402;2022-12-31T16:30:06;2.35;;;1.05;;
31298;SDS011;17927;52.350;13.402;2022-12-31T16:32:41;1.13;;;0.90;;
31298;SDS011;17927;52.350;13.402;2022-12-31T16:35:23;2.60;;;1.13;;
31298;SDS011;17927;52.350;13.402;2022-12-31T16:38:00;1.65;;;1.10;;
31298;SDS011;17927;52.350;13.402;2022-12-31T16:40:32;1.30;;;1.20;;
31298;SDS011;17927;52.350;13.402;2022-12-31T16:42:58;2.78;;;1.40;;
31298;SDS011;17927;52.350;13.402;2022-12-31T16:48:01;2.83;;;1.33;;
31298;SDS011;17927;52.350;13.402;2022-12-31T16:50:31;2.03;;;1.08;;
31298;SDS011;17927;52.350;13.402;2022-12-31T16:52:58;1.42;;;0.73;;
31298;SDS011;17927;52.350;13.402;2022-12-31T16:55:28;1.80;;;0.80;;
31298;SDS011;17927;52.350;13.402;2022-12-31T16:57:57;3.05;;;1.00;;
31298;SDS011;17927;52.350;13.402;2022-12-31T17:00:25;2.25;;;1.25;;
31298;SDS011;17927;52.350;13.402;2022-12-31T17:02:59;2.75;;;1.33;;
31298;SDS011;17927;52.350;13.402;2022-12-31T17:05:31;7.10;;;1.27;;
31298;SDS011;17927;52.350;13.402;2022-12-31T17:08:02;4.88;;;1.10;;
31298;SDS011;17927;52.350;13.402;2022-12-31T17:10:45;2.92;;;1.15;;
31298;SDS011;17927;52.350;13.402;2022-12-31T17:13:22;3.08;;;0.90;;
31298;SDS011;17927;52.350;13.402;2022-12-31T17:15:51;4.35;;;1.00;;
31298;SDS011;17927;52.350;13.402;2022-12-31T17:18:18;1.58;;;0.90;;
31298;SDS011;17927;52.350;13.402;2022-12-31T17:20:46;5.05;;;1.00;;
31298;SDS011;17927;52.350;13.402;2022-12-31T17:23:17;1.33;;;1.17;;
31298;SDS011;17927;52.350;13.402;2022-12-31T17:25:47;1.10;;;0.80;;
31298;SDS011;17927;52.350;13.402;2022-12-31T17:28:22;3.00;;;1.05;;
31298;SDS011;17927;52.350;13.402;2022-12-31T17:30:48;3.60;;;1.20;;
31298;SDS011;17927;52.350;13.402;2022-12-31T17:35:45;3.28;;;1.15;;
31298;SDS011;17927;52.350;13.402;2022-12-31T17:40:52;2.03;;;1.13;;
31298;SDS011;17927;52.350;13.402;2022-12-31T17:43:28;1.35;;;1.25;;
31298;SDS011;17927;52.350;13.402;2022-12-31T17:45:55;6.90;;;4.93;;
31298;SDS011;17927;52.350;13.402;2022-12-31T17:48:21;3.28;;;3.05;;
31298;SDS011;17927;52.350;13.402;2022-12-31T17:50:49;2.38;;;2.03;;
31298;SDS011;17927;52.350;13.402;2022-12-31T17:53:15;1.75;;;1.50;;
31298;SDS011;17927;52.350;13.402;2022-12-31T17:55:42;4.20;;;2.75;;
31298;SDS011;17927;52.350;13.402;2022-12-31T17:58:22;3.63;;;2.33;;
31298;SDS011;17927;52.350;13.402;2022-12-31T18:00:53;1.27;;;1.17;;
31298;SDS011;17927;52.350;13.402;2022-12-31T18:03:19;1.60;;;1.50;;
31298;SDS011;17927;52.350;13.402;2022-12-31T18:05:45;2.90;;;1.80;;
31298;SDS011;17927;52.350;13.402;2022-12-31T18:08:10;3.50;;;1.55;;
31298;SDS011;17927;52.350;13.402;2022-12-31T18:10:36;1.98;;;1.40;;
31298;SDS011;17927;52.350;13.402;2022-12-31T18:13:06;2.20;;;1.20;;
31298;SDS011;17927;52.350;13.402;2022-12-31T18:15:38;4.13;;;1.45;;
31298;SDS011;17927;52.350;13.402;2022-12-31T18:20:44;4.43;;;1.80;;
31298;SDS011;17927;52.350;13.402;2022-12-31T18:23:13;12.18;;;3.00;;
31298;SDS011;17927;52.350;13.402;2022-12-31T18:25:42;1.33;;;1.23;;
31298;SDS011;17927;52.350;13.402;2022-12-31T18:28:08;1.05;;;0.95;;
31298;SDS011;17927;52.350;13.402;2022-12-31T18:30:33;2.13;;;1.20;;
31298;SDS011;17927;52.350;13.402;2022-12-31T18:32:58;3.60;;;1.38;;